X  Sluiten METAR luchtvaart weer gegevens      EHGG Eelde Airport
Temperatuur
22°C Temperatuur
17°C Dauwpunt
73% Vochtigheid



Wind
10 KM/U
6 MPH
3 M/S
5 KTS



80°
Oosten
Huidig weer

Helder Helder
Luchtdruk 1016.92 (hPa) - 30.03 (inHg)
Zicht 6.2 (mijl) - 10 (km)
Vliegveld
Vliegveld code EHGG

Locatie : Eelde Airport
Afstand: 47 (km)

Metar:
EHGG 102355Z AUTO 08005KT 9999 NCD 22/17 Q1017

Tijd: 11-08-2020 01:55 CEST